AZP weather

Atizapan De Zaragoza Airport
Mexico, Mexico

Public forecast

Using degrees Celsius for public forecast. Weather courtesy of forecast.io.

Closest aviation weather report (METAR) to Atizapan De Zaragoza Airport

Closest report is Licenciado Benito Juarez International Airport, 14.8 nm (27.4 km) SE. Retrieved 2019/10/21 00:48 UTC (15 minutes ago):

MMMX 210048Z 18008KT 12SM FEW020 BKN200 20/11 A3020 NOSIG RMK 8/408 DSNT CB AND OCNL LTGIC NW

Closest aviation forecast (TAF) to Atizapan De Zaragoza Airport

Closest forecast is Licenciado Benito Juarez International Airport, 14.8 nm (27.4 km) SE. Retrieved 2019-10-21 00:18 UTC (45 minutes ago):

TAF MMMX 202313Z 2100/2206 17010KT P6SM SCT020 BKN200 TX25/2121Z TN15/2112Z FM210600 20005KT P6SM BKN020 BKN200 FM211600 18010KT P6SM SCT020 BKN200 BECMG 2120/2121 BKN020CB BKN080 TEMPO 2122/2202 6SM TSRA